sensor_id;sensor_type;location;lat;lon;timestamp;P1;durP1;ratioP1;P2;durP2;ratioP2
44126;SDS011;29786;50.798;7.302;2022-11-15T00:00:23;11.9;;;8.7;;
44126;SDS011;29786;50.798;7.302;2022-11-15T00:01:23;12.1;;;8.3;;
44126;SDS011;29786;50.798;7.302;2022-11-15T00:02:23;10;;;7.6;;
44126;SDS011;29786;50.798;7.302;2022-11-15T00:03:24;10.5;;;8.1;;
44126;SDS011;29786;50.798;7.302;2022-11-15T00:04:23;13.2;;;8.1;;
44126;SDS011;29786;50.798;7.302;2022-11-15T00:05:23;9.1;;;7.8;;
44126;SDS011;29786;50.798;7.302;2022-11-15T00:06:23;11.1;;;7.7;;
44126;SDS011;29786;50.798;7.302;2022-11-15T00:07:23;10.6;;;7.8;;
44126;SDS011;29786;50.798;7.302;2022-11-15T00:08:23;11.3;;;8;;
44126;SDS011;29786;50.798;7.302;2022-11-15T00:09:23;10.9;;;8.3;;
44126;SDS011;29786;50.798;7.302;2022-11-15T00:10:23;11.2;;;7.7;;
44126;SDS011;29786;50.798;7.302;2022-11-15T00:11:23;12.7;;;8.6;;
44126;SDS011;29786;50.798;7.302;2022-11-15T00:12:23;11.2;;;8.2;;
44126;SDS011;29786;50.798;7.302;2022-11-15T00:13:23;13.4;;;8.8;;
44126;SDS011;29786;50.798;7.302;2022-11-15T00:14:23;12;;;8.7;;
44126;SDS011;29786;50.798;7.302;2022-11-15T00:15:23;13.5;;;7.9;;
44126;SDS011;29786;50.798;7.302;2022-11-15T00:16:23;14.3;;;8.6;;
44126;SDS011;29786;50.798;7.302;2022-11-15T00:17:23;10.6;;;8.2;;
44126;SDS011;29786;50.798;7.302;2022-11-15T00:18:23;13.5;;;8.8;;
44126;SDS011;29786;50.798;7.302;2022-11-15T00:19:23;11.4;;;8.5;;
44126;SDS011;29786;50.798;7.302;2022-11-15T00:20:23;13;;;8.9;;
44126;SDS011;29786;50.798;7.302;2022-11-15T00:21:23;11.9;;;9.2;;
44126;SDS011;29786;50.798;7.302;2022-11-15T00:22:23;13.2;;;9.4;;
44126;SDS011;29786;50.798;7.302;2022-11-15T00:23:23;13.4;;;9;;
44126;SDS011;29786;50.798;7.302;2022-11-15T00:24:23;12.9;;;8.9;;
44126;SDS011;29786;50.798;7.302;2022-11-15T00:25:23;12.5;;;8.5;;
44126;SDS011;29786;50.798;7.302;2022-11-15T00:26:23;13.8;;;10.4;;
44126;SDS011;29786;50.798;7.302;2022-11-15T00:27:23;14.8;;;8.8;;
44126;SDS011;29786;50.798;7.302;2022-11-15T00:28:23;13.4;;;9.4;;
44126;SDS011;29786;50.798;7.302;2022-11-15T00:29:23;13.9;;;9.6;;
44126;SDS011;29786;50.798;7.302;2022-11-15T00:30:23;14.6;;;10;;
44126;SDS011;29786;50.798;7.302;2022-11-15T00:31:23;13.7;;;9.7;;
44126;SDS011;29786;50.798;7.302;2022-11-15T00:32:23;13;;;9.7;;
44126;SDS011;29786;50.798;7.302;2022-11-15T00:33:23;14.1;;;10;;
44126;SDS011;29786;50.798;7.302;2022-11-15T00:34:23;12.9;;;9.9;;
44126;SDS011;29786;50.798;7.302;2022-11-15T00:35:23;14.4;;;9.5;;
44126;SDS011;29786;50.798;7.302;2022-11-15T00:36:23;12.6;;;9.1;;
44126;SDS011;29786;50.798;7.302;2022-11-15T00:37:23;12.4;;;9.1;;
44126;SDS011;29786;50.798;7.302;2022-11-15T00:38:23;11.4;;;8.6;;
44126;SDS011;29786;50.798;7.302;2022-11-15T00:39:23;16.3;;;9.8;;
44126;SDS011;29786;50.798;7.302;2022-11-15T00:40:23;14.3;;;9.4;;
44126;SDS011;29786;50.798;7.302;2022-11-15T00:41:23;13.1;;;9.8;;
44126;SDS011;29786;50.798;7.302;2022-11-15T00:42:23;14.1;;;9.9;;
44126;SDS011;29786;50.798;7.302;2022-11-15T00:43:23;13.6;;;9.3;;
44126;SDS011;29786;50.798;7.302;2022-11-15T00:44:23;13.9;;;9.3;;
44126;SDS011;29786;50.798;7.302;2022-11-15T00:45:23;12.8;;;10.3;;
44126;SDS011;29786;50.798;7.302;2022-11-15T00:46:23;15.2;;;10;;
44126;SDS011;29786;50.798;7.302;2022-11-15T00:47:23;13.6;;;10.1;;
44126;SDS011;29786;50.798;7.302;2022-11-15T00:48:23;17;;;10.3;;
44126;SDS011;29786;50.798;7.302;2022-11-15T00:49:23;15.5;;;9.5;;
44126;SDS011;29786;50.798;7.302;2022-11-15T00:50:23;12.8;;;8.9;;
44126;SDS011;29786;50.798;7.302;2022-11-15T00:51:23;14.2;;;10;;
44126;SDS011;29786;50.798;7.302;2022-11-15T00:52:23;12.7;;;9.7;;
44126;SDS011;29786;50.798;7.302;2022-11-15T00:53:23;13.5;;;10.3;;
44126;SDS011;29786;50.798;7.302;2022-11-15T00:54:23;13.5;;;8.9;;
44126;SDS011;29786;50.798;7.302;2022-11-15T00:55:23;14.8;;;10.1;;
44126;SDS011;29786;50.798;7.302;2022-11-15T00:56:23;11.8;;;9.5;;
44126;SDS011;29786;50.798;7.302;2022-11-15T00:57:23;13.3;;;9.6;;
44126;SDS011;29786;50.798;7.302;2022-11-15T00:58:23;15.4;;;9.8;;
44126;SDS011;29786;50.798;7.302;2022-11-15T00:59:23;13.1;;;9.3;;
44126;SDS011;29786;50.798;7.302;2022-11-15T01:00:23;14.5;;;10.4;;
44126;SDS011;29786;50.798;7.302;2022-11-15T01:01:23;14.4;;;9.3;;
44126;SDS011;29786;50.798;7.302;2022-11-15T01:02:23;11.6;;;8.8;;
44126;SDS011;29786;50.798;7.302;2022-11-15T01:03:23;14.6;;;9.6;;
44126;SDS011;29786;50.798;7.302;2022-11-15T01:04:23;13.4;;;9.7;;
44126;SDS011;29786;50.798;7.302;2022-11-15T01:05:23;13.3;;;10;;
44126;SDS011;29786;50.798;7.302;2022-11-15T01:06:23;15.2;;;10.4;;
44126;SDS011;29786;50.798;7.302;2022-11-15T01:07:23;13.6;;;9.6;;
44126;SDS011;29786;50.798;7.302;2022-11-15T01:08:23;11.5;;;9.4;;
44126;SDS011;29786;50.798;7.302;2022-11-15T01:09:23;12;;;9.4;;
44126;SDS011;29786;50.798;7.302;2022-11-15T01:10:23;12.2;;;9.6;;
44126;SDS011;29786;50.798;7.302;2022-11-15T01:11:23;16.6;;;10.5;;
44126;SDS011;29786;50.798;7.302;2022-11-15T01:12:23;15.9;;;10;;
44126;SDS011;29786;50.798;7.302;2022-11-15T01:13:23;12.3;;;9.2;;
44126;SDS011;29786;50.798;7.302;2022-11-15T01:14:23;12.4;;;9.5;;
44126;SDS011;29786;50.798;7.302;2022-11-15T01:15:23;13.5;;;9.2;;
44126;SDS011;29786;50.798;7.302;2022-11-15T01:16:23;14.5;;;9.2;;
44126;SDS011;29786;50.798;7.302;2022-11-15T01:17:23;14.2;;;9.8;;
44126;SDS011;29786;50.798;7.302;2022-11-15T01:18:23;12.6;;;9.1;;
44126;SDS011;29786;50.798;7.302;2022-11-15T01:19:23;13.7;;;9.1;;
44126;SDS011;29786;50.798;7.302;2022-11-15T01:20:23;12.9;;;9.3;;
44126;SDS011;29786;50.798;7.302;2022-11-15T01:21:23;12.5;;;9;;
44126;SDS011;29786;50.798;7.302;2022-11-15T01:22:23;11.4;;;8.3;;
44126;SDS011;29786;50.798;7.302;2022-11-15T01:23:23;12.2;;;8.8;;
44126;SDS011;29786;50.798;7.302;2022-11-15T01:24:23;12;;;9;;
44126;SDS011;29786;50.798;7.302;2022-11-15T01:25:23;13.7;;;8.8;;
44126;SDS011;29786;50.798;7.302;2022-11-15T01:26:23;10.9;;;8.3;;
44126;SDS011;29786;50.798;7.302;2022-11-15T01:27:23;13.8;;;9.4;;
44126;SDS011;29786;50.798;7.302;2022-11-15T01:28:23;15.2;;;9.4;;
44126;SDS011;29786;50.798;7.302;2022-11-15T01:29:23;15.1;;;8.8;;
44126;SDS011;29786;50.798;7.302;2022-11-15T01:30:23;13.8;;;9;;
44126;SDS011;29786;50.798;7.302;2022-11-15T01:31:23;11.5;;;8.5;;
44126;SDS011;29786;50.798;7.302;2022-11-15T01:32:23;12.4;;;8.3;;
44126;SDS011;29786;50.798;7.302;2022-11-15T01:33:23;11.4;;;8.8;;
44126;SDS011;29786;50.798;7.302;2022-11-15T01:34:23;13.1;;;9.2;;
44126;SDS011;29786;50.798;7.302;2022-11-15T01:35:23;12.2;;;8.4;;
44126;SDS011;29786;50.798;7.302;2022-11-15T01:36:23;11.3;;;8.8;;
44126;SDS011;29786;50.798;7.302;2022-11-15T01:37:23;11.9;;;8.7;;
44126;SDS011;29786;50.798;7.302;2022-11-15T01:38:23;11;;;8.3;;
44126;SDS011;29786;50.798;7.302;2022-11-15T01:39:23;11.5;;;9.1;;
44126;SDS011;29786;50.798;7.302;2022-11-15T01:40:23;12.5;;;8.5;;
44126;SDS011;29786;50.798;7.302;2022-11-15T01:41:25;11.7;;;8.2;;
44126;SDS011;29786;50.798;7.302;2022-11-15T01:42:23;13.9;;;8.9;;
44126;SDS011;29786;50.798;7.302;2022-11-15T01:43:24;15;;;9.3;;
44126;SDS011;29786;50.798;7.302;2022-11-15T01:44:55;10.6;;;8.3;;
44126;SDS011;29786;50.798;7.302;2022-11-15T01:45:23;14;;;8.7;;
44126;SDS011;29786;50.798;7.302;2022-11-15T01:46:31;12.5;;;9;;
44126;SDS011;29786;50.798;7.302;2022-11-15T01:47:23;13.7;;;9.3;;
44126;SDS011;29786;50.798;7.302;2022-11-15T01:48:23;11.4;;;8.8;;
44126;SDS011;29786;50.798;7.302;2022-11-15T01:49:23;12.5;;;8.6;;
44126;SDS011;29786;50.798;7.302;2022-11-15T01:50:24;13.2;;;8.7;;
44126;SDS011;29786;50.798;7.302;2022-11-15T01:51:23;14.1;;;8.5;;
44126;SDS011;29786;50.798;7.302;2022-11-15T01:52:24;10.8;;;8.8;;
44126;SDS011;29786;50.798;7.302;2022-11-15T01:53:23;11;;;8.4;;
44126;SDS011;29786;50.798;7.302;2022-11-15T01:54:23;12.7;;;9.2;;
44126;SDS011;29786;50.798;7.302;2022-11-15T01:55:24;11.1;;;8.8;;
44126;SDS011;29786;50.798;7.302;2022-11-15T01:56:23;13.3;;;8.8;;
44126;SDS011;29786;50.798;7.302;2022-11-15T01:57:23;11;;;8.2;;
44126;SDS011;29786;50.798;7.302;2022-11-15T01:58:23;10.6;;;8.4;;
44126;SDS011;29786;50.798;7.302;2022-11-15T01:59:23;10.8;;;7.9;;
44126;SDS011;29786;50.798;7.302;2022-11-15T02:00:23;11.1;;;8.1;;
44126;SDS011;29786;50.798;7.302;2022-11-15T02:01:23;11.4;;;8.4;;
44126;SDS011;29786;50.798;7.302;2022-11-15T02:02:23;14.1;;;7.9;;
44126;SDS011;29786;50.798;7.302;2022-11-15T02:03:23;11.4;;;8;;
44126;SDS011;29786;50.798;7.302;2022-11-15T02:04:27;11.6;;;8.5;;
44126;SDS011;29786;50.798;7.302;2022-11-15T02:05:23;13.3;;;7.9;;
44126;SDS011;29786;50.798;7.302;2022-11-15T02:06:23;10;;;8;;
44126;SDS011;29786;50.798;7.302;2022-11-15T02:07:23;11;;;7.8;;
44126;SDS011;29786;50.798;7.302;2022-11-15T02:08:23;11.6;;;7.9;;
44126;SDS011;29786;50.798;7.302;2022-11-15T02:09:23;11;;;8;;
44126;SDS011;29786;50.798;7.302;2022-11-15T02:10:23;10.4;;;7.9;;
44126;SDS011;29786;50.798;7.302;2022-11-15T02:11:23;11.5;;;8;;
44126;SDS011;29786;50.798;7.302;2022-11-15T02:12:23;9.2;;;7.3;;
44126;SDS011;29786;50.798;7.302;2022-11-15T02:13:23;9.1;;;7.5;;
44126;SDS011;29786;50.798;7.302;2022-11-15T02:14:23;10.6;;;7.7;;
44126;SDS011;29786;50.798;7.302;2022-11-15T02:15:24;9.8;;;7.4;;
44126;SDS011;29786;50.798;7.302;2022-11-15T02:16:27;10.7;;;7.4;;
44126;SDS011;29786;50.798;7.302;2022-11-15T02:17:33;8.8;;;6.9;;
44126;SDS011;29786;50.798;7.302;2022-11-15T02:18:26;9.1;;;7.5;;
44126;SDS011;29786;50.798;7.302;2022-11-15T02:19:28;10.4;;;8.4;;
44126;SDS011;29786;50.798;7.302;2022-11-15T02:20:34;9.8;;;7.3;;
44126;SDS011;29786;50.798;7.302;2022-11-15T02:21:28;10;;;7.2;;
44126;SDS011;29786;50.798;7.302;2022-11-15T02:25:57;8.5;;;6.7;;
44126;SDS011;29786;50.798;7.302;2022-11-15T02:26:30;10.5;;;7.1;;
44126;SDS011;29786;50.798;7.302;2022-11-15T02:27:35;9;;;6.7;;
44126;SDS011;29786;50.798;7.302;2022-11-15T02:28:42;10.4;;;7.4;;
44126;SDS011;29786;50.798;7.302;2022-11-15T02:29:28;9.1;;;6.8;;
44126;SDS011;29786;50.798;7.302;2022-11-15T02:30:27;9.3;;;6.9;;
44126;SDS011;29786;50.798;7.302;2022-11-15T02:31:26;10.4;;;6.7;;
44126;SDS011;29786;50.798;7.302;2022-11-15T02:32:27;8.3;;;7;;
44126;SDS011;29786;50.798;7.302;2022-11-15T02:33:41;8.4;;;6.6;;
44126;SDS011;29786;50.798;7.302;2022-11-15T02:34:28;9.5;;;6.9;;
44126;SDS011;29786;50.798;7.302;2022-11-15T02:35:29;8.9;;;6.8;;
44126;SDS011;29786;50.798;7.302;2022-11-15T02:36:27;8.6;;;6.2;;
44126;SDS011;29786;50.798;7.302;2022-11-15T02:37:39;8.8;;;6.6;;
44126;SDS011;29786;50.798;7.302;2022-11-15T02:38:40;9.1;;;6.5;;
44126;SDS011;29786;50.798;7.302;2022-11-15T02:39:25;8.2;;;6.4;;
44126;SDS011;29786;50.798;7.302;2022-11-15T02:40:26;7.3;;;6.2;;
44126;SDS011;29786;50.798;7.302;2022-11-15T02:41:24;8.3;;;6.9;;
44126;SDS011;29786;50.798;7.302;2022-11-15T02:42:25;7.7;;;6.1;;
44126;SDS011;29786;50.798;7.302;2022-11-15T02:43:28;7.6;;;6.2;;
44126;SDS011;29786;50.798;7.302;2022-11-15T02:44:27;8.6;;;6.5;;
44126;SDS011;29786;50.798;7.302;2022-11-15T02:45:24;9.9;;;6.9;;
44126;SDS011;29786;50.798;7.302;2022-11-15T02:46:26;10.1;;;6.8;;
44126;SDS011;29786;50.798;7.302;2022-11-15T02:47:23;10.6;;;6.9;;
44126;SDS011;29786;50.798;7.302;2022-11-15T02:48:23;8;;;6.3;;
44126;SDS011;29786;50.798;7.302;2022-11-15T02:49:24;8.6;;;6.7;;
44126;SDS011;29786;50.798;7.302;2022-11-15T02:50:24;9.6;;;6.8;;
44126;SDS011;29786;50.798;7.302;2022-11-15T02:51:23;9.2;;;6.8;;
44126;SDS011;29786;50.798;7.302;2022-11-15T02:52:23;7.9;;;6.9;;
44126;SDS011;29786;50.798;7.302;2022-11-15T02:53:24;9.7;;;7.1;;
44126;SDS011;29786;50.798;7.302;2022-11-15T02:54:24;7.9;;;6.8;;
44126;SDS011;29786;50.798;7.302;2022-11-15T02:55:41;9.6;;;6.8;;
44126;SDS011;29786;50.798;7.302;2022-11-15T02:56:23;7.8;;;7;;
44126;SDS011;29786;50.798;7.302;2022-11-15T02:57:44;7.9;;;7;;
44126;SDS011;29786;50.798;7.302;2022-11-15T02:58:30;10.1;;;7.3;;
44126;SDS011;29786;50.798;7.302;2022-11-15T02:59:35;9.1;;;7.1;;
44126;SDS011;29786;50.798;7.302;2022-11-15T03:00:23;8.7;;;7;;
44126;SDS011;29786;50.798;7.302;2022-11-15T03:01:28;9.9;;;6.9;;
44126;SDS011;29786;50.798;7.302;2022-11-15T03:03:28;7.5;;;6.6;;
44126;SDS011;29786;50.798;7.302;2022-11-15T03:04:30;8.9;;;7.1;;
44126;SDS011;29786;50.798;7.302;2022-11-15T03:05:34;9.6;;;7.6;;
44126;SDS011;29786;50.798;7.302;2022-11-15T03:07:25;9;;;7.1;;
44126;SDS011;29786;50.798;7.302;2022-11-15T03:08:29;9.2;;;7.5;;
44126;SDS011;29786;50.798;7.302;2022-11-15T03:09:28;9.6;;;7;;
44126;SDS011;29786;50.798;7.302;2022-11-15T03:10:25;8.5;;;6.9;;
44126;SDS011;29786;50.798;7.302;2022-11-15T03:11:23;9;;;7.3;;
44126;SDS011;29786;50.798;7.302;2022-11-15T03:12:27;10.5;;;7.4;;
44126;SDS011;29786;50.798;7.302;2022-11-15T03:13:25;8.7;;;7.6;;
44126;SDS011;29786;50.798;7.302;2022-11-15T03:14:24;11.7;;;7.7;;
44126;SDS011;29786;50.798;7.302;2022-11-15T03:15:25;9.1;;;6.3;;
44126;SDS011;29786;50.798;7.302;2022-11-15T03:17:23;8.8;;;7.3;;
44126;SDS011;29786;50.798;7.302;2022-11-15T03:18:39;10.8;;;7.2;;
44126;SDS011;29786;50.798;7.302;2022-11-15T03:19:30;9.7;;;7.4;;
44126;SDS011;29786;50.798;7.302;2022-11-15T03:20:23;8.9;;;7.3;;
44126;SDS011;29786;50.798;7.302;2022-11-15T03:21:23;9.3;;;7.5;;
44126;SDS011;29786;50.798;7.302;2022-11-15T03:22:23;8.8;;;7;;
44126;SDS011;29786;50.798;7.302;2022-11-15T03:23:23;9.2;;;7.2;;
44126;SDS011;29786;50.798;7.302;2022-11-15T03:24:23;9.2;;;6.7;;
44126;SDS011;29786;50.798;7.302;2022-11-15T03:25:23;10.3;;;7.5;;
44126;SDS011;29786;50.798;7.302;2022-11-15T03:26:23;8.4;;;7;;
44126;SDS011;29786;50.798;7.302;2022-11-15T03:27:24;7.4;;;6.6;;
44126;SDS011;29786;50.798;7.302;2022-11-15T03:28:24;7.6;;;6.6;;
44126;SDS011;29786;50.798;7.302;2022-11-15T03:29:24;8.3;;;7.1;;
44126;SDS011;29786;50.798;7.302;2022-11-15T03:30:23;10.6;;;7.9;;
44126;SDS011;29786;50.798;7.302;2022-11-15T03:31:23;9.3;;;7.5;;
44126;SDS011;29786;50.798;7.302;2022-11-15T03:32:25;8.5;;;6.7;;
44126;SDS011;29786;50.798;7.302;2022-11-15T03:33:23;8.7;;;7.2;;
44126;SDS011;29786;50.798;7.302;2022-11-15T03:34:27;7.8;;;6.7;;
44126;SDS011;29786;50.798;7.302;2022-11-15T03:35:24;9.1;;;7.4;;
44126;SDS011;29786;50.798;7.302;2022-11-15T03:36:23;8;;;7.1;;
44126;SDS011;29786;50.798;7.302;2022-11-15T03:37:25;9.7;;;7.1;;
44126;SDS011;29786;50.798;7.302;2022-11-15T03:38:26;7.9;;;6.7;;
44126;SDS011;29786;50.798;7.302;2022-11-15T03:39:23;9.5;;;7.3;;
44126;SDS011;29786;50.798;7.302;2022-11-15T03:40:25;7.6;;;6.7;;
44126;SDS011;29786;50.798;7.302;2022-11-15T03:41:24;9.6;;;7.1;;
44126;SDS011;29786;50.798;7.302;2022-11-15T03:42:27;8.7;;;7.3;;
44126;SDS011;29786;50.798;7.302;2022-11-15T03:43:28;9.9;;;7.4;;
44126;SDS011;29786;50.798;7.302;2022-11-15T03:44:27;10.8;;;6.6;;
44126;SDS011;29786;50.798;7.302;2022-11-15T03:45:24;10.9;;;7.6;;
44126;SDS011;29786;50.798;7.302;2022-11-15T03:46:24;9.3;;;7.7;;
44126;SDS011;29786;50.798;7.302;2022-11-15T03:47:25;9;;;7.5;;
44126;SDS011;29786;50.798;7.302;2022-11-15T03:48:24;11.3;;;7.6;;
44126;SDS011;29786;50.798;7.302;2022-11-15T03:49:25;8.2;;;7.4;;
44126;SDS011;29786;50.798;7.302;2022-11-15T03:50:23;9.9;;;7.1;;
44126;SDS011;29786;50.798;7.302;2022-11-15T03:51:23;11.3;;;7.8;;
44126;SDS011;29786;50.798;7.302;2022-11-15T03:52:23;8.3;;;7.3;;
44126;SDS011;29786;50.798;7.302;2022-11-15T03:53:23;10.2;;;7.5;;
44126;SDS011;29786;50.798;7.302;2022-11-15T03:54:23;10.1;;;7.1;;
44126;SDS011;29786;50.798;7.302;2022-11-15T03:55:23;8.7;;;7;;
44126;SDS011;29786;50.798;7.302;2022-11-15T03:56:23;7.4;;;6.4;;
44126;SDS011;29786;50.798;7.302;2022-11-15T03:57:23;8.8;;;6.7;;
44126;SDS011;29786;50.798;7.302;2022-11-15T03:58:23;8.7;;;6.9;;
44126;SDS011;29786;50.798;7.302;2022-11-15T03:59:23;7.9;;;6.7;;
44126;SDS011;29786;50.798;7.302;2022-11-15T04:00:23;8.3;;;7.3;;
44126;SDS011;29786;50.798;7.302;2022-11-15T04:01:23;8;;;6.5;;
44126;SDS011;29786;50.798;7.302;2022-11-15T04:02:23;7.7;;;6.7;;
44126;SDS011;29786;50.798;7.302;2022-11-15T04:03:23;8.5;;;7;;
44126;SDS011;29786;50.798;7.302;2022-11-15T04:04:23;8.3;;;6.4;;
44126;SDS011;29786;50.798;7.302;2022-11-15T04:05:23;10.8;;;7.2;;
44126;SDS011;29786;50.798;7.302;2022-11-15T04:06:23;9.6;;;7;;
44126;SDS011;29786;50.798;7.302;2022-11-15T04:07:23;7.8;;;6.6;;
44126;SDS011;29786;50.798;7.302;2022-11-15T04:08:23;9.6;;;7;;
44126;SDS011;29786;50.798;7.302;2022-11-15T04:09:23;7.8;;;6.5;;
44126;SDS011;29786;50.798;7.302;2022-11-15T04:10:23;9.7;;;6.7;;
44126;SDS011;29786;50.798;7.302;2022-11-15T04:11:23;9.4;;;7.3;;
44126;SDS011;29786;50.798;7.302;2022-11-15T04:12:23;8.9;;;6.6;;
44126;SDS011;29786;50.798;7.302;2022-11-15T04:13:23;10.1;;;7.3;;
44126;SDS011;29786;50.798;7.302;2022-11-15T04:14:23;7.3;;;6;;
44126;SDS011;29786;50.798;7.302;2022-11-15T04:15:23;8.6;;;6.9;;
44126;SDS011;29786;50.798;7.302;2022-11-15T04:16:23;7.6;;;6.8;;
44126;SDS011;29786;50.798;7.302;2022-11-15T04:17:23;9.2;;;7;;
44126;SDS011;29786;50.798;7.302;2022-11-15T04:18:23;9.5;;;6.9;;
44126;SDS011;29786;50.798;7.302;2022-11-15T04:19:23;6.6;;;5.9;;
44126;SDS011;29786;50.798;7.302;2022-11-15T04:20:24;9;;;6.6;;
44126;SDS011;29786;50.798;7.302;2022-11-15T04:21:23;9.1;;;6.7;;
44126;SDS011;29786;50.798;7.302;2022-11-15T04:22:23;7.6;;;6.7;;
44126;SDS011;29786;50.798;7.302;2022-11-15T04:23:23;6.6;;;6;;
44126;SDS011;29786;50.798;7.302;2022-11-15T04:24:23;9.9;;;6.3;;
44126;SDS011;29786;50.798;7.302;2022-11-15T04:25:23;7.7;;;6.4;;
44126;SDS011;29786;50.798;7.302;2022-11-15T04:26:23;7.5;;;6.7;;
44126;SDS011;29786;50.798;7.302;2022-11-15T04:27:23;9;;;6.5;;
44126;SDS011;29786;50.798;7.302;2022-11-15T04:28:23;11.5;;;6.9;;
44126;SDS011;29786;50.798;7.302;2022-11-15T04:29:23;7.5;;;6.8;;
44126;SDS011;29786;50.798;7.302;2022-11-15T04:30:23;9.2;;;6.4;;
44126;SDS011;29786;50.798;7.302;2022-11-15T04:31:23;6.7;;;5.9;;
44126;SDS011;29786;50.798;7.302;2022-11-15T04:32:23;9.2;;;6.4;;
44126;SDS011;29786;50.798;7.302;2022-11-15T04:33:23;9;;;6.3;;
44126;SDS011;29786;50.798;7.302;2022-11-15T04:34:23;7.9;;;6.4;;
44126;SDS011;29786;50.798;7.302;2022-11-15T04:35:23;9.3;;;6.1;;
44126;SDS011;29786;50.798;7.302;2022-11-15T04:36:23;9.4;;;6.8;;
44126;SDS011;29786;50.798;7.302;2022-11-15T04:37:23;7.2;;;6.2;;
44126;SDS011;29786;50.798;7.302;2022-11-15T04:38:23;8.3;;;6.7;;
44126;SDS011;29786;50.798;7.302;2022-11-15T04:39:23;9.6;;;6.7;;
44126;SDS011;29786;50.798;7.302;2022-11-15T04:40:23;8.8;;;6.7;;
44126;SDS011;29786;50.798;7.302;2022-11-15T04:41:23;9.3;;;7;;
44126;SDS011;29786;50.798;7.302;2022-11-15T04:42:23;8.5;;;6.5;;
44126;SDS011;29786;50.798;7.302;2022-11-15T04:43:23;8.1;;;6.7;;
44126;SDS011;29786;50.798;7.302;2022-11-15T04:44:23;7.6;;;6.8;;
44126;SDS011;29786;50.798;7.302;2022-11-15T04:45:23;8;;;6.5;;
44126;SDS011;29786;50.798;7.302;2022-11-15T04:46:23;7.5;;;6;;
44126;SDS011;29786;50.798;7.302;2022-11-15T04:47:23;7.8;;;6.6;;
44126;SDS011;29786;50.798;7.302;2022-11-15T04:48:23;7.9;;;6.2;;
44126;SDS011;29786;50.798;7.302;2022-11-15T04:49:23;10.7;;;7.2;;
44126;SDS011;29786;50.798;7.302;2022-11-15T04:50:23;6.7;;;6;;
44126;SDS011;29786;50.798;7.302;2022-11-15T04:51:23;8.9;;;6.4;;
44126;SDS011;29786;50.798;7.302;2022-11-15T04:52:23;7.1;;;6;;
44126;SDS011;29786;50.798;7.302;2022-11-15T04:53:23;9.4;;;6.7;;
44126;SDS011;29786;50.798;7.302;2022-11-15T04:54:23;9.2;;;6.4;;
44126;SDS011;29786;50.798;7.302;2022-11-15T04:55:23;8.1;;;6.1;;
44126;SDS011;29786;50.798;7.302;2022-11-15T04:56:23;8.4;;;6.2;;
44126;SDS011;29786;50.798;7.302;2022-11-15T04:57:23;8.3;;;6;;
44126;SDS011;29786;50.798;7.302;2022-11-15T04:58:23;8.6;;;6.4;;
44126;SDS011;29786;50.798;7.302;2022-11-15T04:59:23;7.6;;;6.2;;
44126;SDS011;29786;50.798;7.302;2022-11-15T05:00:23;7;;;5.8;;
44126;SDS011;29786;50.798;7.302;2022-11-15T05:01:23;7.6;;;5.9;;
44126;SDS011;29786;50.798;7.302;2022-11-15T05:02:23;8.5;;;5.8;;
44126;SDS011;29786;50.798;7.302;2022-11-15T05:03:23;6.8;;;5.5;;
44126;SDS011;29786;50.798;7.302;2022-11-15T05:04:23;8.7;;;6.3;;
44126;SDS011;29786;50.798;7.302;2022-11-15T05:05:23;7.4;;;5.8;;
44126;SDS011;29786;50.798;7.302;2022-11-15T05:06:23;7.5;;;5.9;;
44126;SDS011;29786;50.798;7.302;2022-11-15T05:07:23;9.3;;;6.1;;
44126;SDS011;29786;50.798;7.302;2022-11-15T05:08:23;7.3;;;5.3;;
44126;SDS011;29786;50.798;7.302;2022-11-15T05:09:23;8.1;;;5.7;;
44126;SDS011;29786;50.798;7.302;2022-11-15T05:10:23;8.3;;;5.5;;
44126;SDS011;29786;50.798;7.302;2022-11-15T05:11:23;6.1;;;5.5;;
44126;SDS011;29786;50.798;7.302;2022-11-15T05:12:23;7.1;;;5.7;;
44126;SDS011;29786;50.798;7.302;2022-11-15T05:13:23;7.1;;;5.6;;
44126;SDS011;29786;50.798;7.302;2022-11-15T05:14:23;8.2;;;5.9;;
44126;SDS011;29786;50.798;7.302;2022-11-15T05:15:23;7;;;5.7;;
44126;SDS011;29786;50.798;7.302;2022-11-15T05:16:23;7.1;;;5.3;;
44126;SDS011;29786;50.798;7.302;2022-11-15T05:17:23;6.9;;;5.3;;
44126;SDS011;29786;50.798;7.302;2022-11-15T05:18:23;7.5;;;5.8;;
44126;SDS011;29786;50.798;7.302;2022-11-15T05:19:23;7.3;;;5.8;;
44126;SDS011;29786;50.798;7.302;2022-11-15T05:20:23;6.3;;;5.1;;
44126;SDS011;29786;50.798;7.302;2022-11-15T05:21:23;6.7;;;5.8;;
44126;SDS011;29786;50.798;7.302;2022-11-15T05:22:23;7.8;;;6.1;;
44126;SDS011;29786;50.798;7.302;2022-11-15T05:23:23;6.8;;;5.7;;
44126;SDS011;29786;50.798;7.302;2022-11-15T05:24:23;6.2;;;5.5;;
44126;SDS011;29786;50.798;7.302;2022-11-15T05:25:23;7.2;;;5.3;;
44126;SDS011;29786;50.798;7.302;2022-11-15T05:26:23;5.8;;;4.6;;
44126;SDS011;29786;50.798;7.302;2022-11-15T05:27:23;5.8;;;4.7;;
44126;SDS011;29786;50.798;7.302;2022-11-15T05:28:23;6.7;;;5.2;;
44126;SDS011;29786;50.798;7.302;2022-11-15T05:29:23;7.5;;;4.9;;
44126;SDS011;29786;50.798;7.302;2022-11-15T05:30:23;7.5;;;4.9;;
44126;SDS011;29786;50.798;7.302;2022-11-15T05:31:23;5.3;;;4.5;;
44126;SDS011;29786;50.798;7.302;2022-11-15T05:32:23;9.2;;;5.9;;
44126;SDS011;29786;50.798;7.302;2022-11-15T05:33:23;4.9;;;4.4;;
44126;SDS011;29786;50.798;7.302;2022-11-15T05:34:23;5.8;;;4.4;;
44126;SDS011;29786;50.798;7.302;2022-11-15T05:35:28;6;;;4.2;;
44126;SDS011;29786;50.798;7.302;2022-11-15T05:36:40;7.3;;;5.5;;
44126;SDS011;29786;50.798;7.302;2022-11-15T05:37:23;6;;;4.8;;
44126;SDS011;29786;50.798;7.302;2022-11-15T05:38:23;8.5;;;7.8;;
44126;SDS011;29786;50.798;7.302;2022-11-15T05:39:23;5.5;;;4.9;;
44126;SDS011;29786;50.798;7.302;2022-11-15T05:40:23;7.1;;;4.4;;
44126;SDS011;29786;50.798;7.302;2022-11-15T05:41:26;6.7;;;4.2;;
44126;SDS011;29786;50.798;7.302;2022-11-15T05:42:23;5.9;;;4.4;;
44126;SDS011;29786;50.798;7.302;2022-11-15T05:43:23;5.6;;;4.5;;
44126;SDS011;29786;50.798;7.302;2022-11-15T05:44:23;7.7;;;5.3;;
44126;SDS011;29786;50.798;7.302;2022-11-15T05:45:23;4.9;;;4.4;;
44126;SDS011;29786;50.798;7.302;2022-11-15T05:46:23;5.5;;;3.8;;
44126;SDS011;29786;50.798;7.302;2022-11-15T05:47:23;4.6;;;4.2;;
44126;SDS011;29786;50.798;7.302;2022-11-15T05:48:23;6.4;;;4.7;;
44126;SDS011;29786;50.798;7.302;2022-11-15T05:49:23;6.2;;;4.7;;
44126;SDS011;29786;50.798;7.302;2022-11-15T05:50:23;4.2;;;3.8;;
44126;SDS011;29786;50.798;7.302;2022-11-15T05:51:23;4.7;;;4.1;;
44126;SDS011;29786;50.798;7.302;2022-11-15T05:52:24;4.7;;;4.1;;
44126;SDS011;29786;50.798;7.302;2022-11-15T05:53:23;4.6;;;4.2;;
44126;SDS011;29786;50.798;7.302;2022-11-15T05:54:23;4.5;;;3.8;;
44126;SDS011;29786;50.798;7.302;2022-11-15T05:55:23;5.8;;;4.2;;
44126;SDS011;29786;50.798;7.302;2022-11-15T05:56:23;5.4;;;4.2;;
44126;SDS011;29786;50.798;7.302;2022-11-15T05:57:23;4.6;;;4.1;;
44126;SDS011;29786;50.798;7.302;2022-11-15T05:58:23;5.6;;;3.9;;
44126;SDS011;29786;50.798;7.302;2022-11-15T05:59:23;5.3;;;4.2;;
44126;SDS011;29786;50.798;7.302;2022-11-15T06:00:23;5.1;;;3.6;;
44126;SDS011;29786;50.798;7.302;2022-11-15T06:01:23;5.8;;;3.8;;
44126;SDS011;29786;50.798;7.302;2022-11-15T06:02:23;6.9;;;4.1;;
44126;SDS011;29786;50.798;7.302;2022-11-15T06:03:23;4.6;;;3.9;;
44126;SDS011;29786;50.798;7.302;2022-11-15T06:04:23;3.9;;;3.5;;
44126;SDS011;29786;50.798;7.302;2022-11-15T06:05:26;4.4;;;4;;
44126;SDS011;29786;50.798;7.302;2022-11-15T06:06:23;4.8;;;3.8;;
44126;SDS011;29786;50.798;7.302;2022-11-15T06:07:23;4.2;;;3.8;;
44126;SDS011;29786;50.798;7.302;2022-11-15T06:08:23;6.3;;;4;;
44126;SDS011;29786;50.798;7.302;2022-11-15T06:09:23;4.3;;;3.6;;
44126;SDS011;29786;50.798;7.302;2022-11-15T06:10:23;4.8;;;3.5;;
44126;SDS011;29786;50.798;7.302;2022-11-15T06:11:23;5.4;;;4.1;;
44126;SDS011;29786;50.798;7.302;2022-11-15T06:12:23;6;;;3.8;;
44126;SDS011;29786;50.798;7.302;2022-11-15T06:13:23;5.1;;;3.5;;
44126;SDS011;29786;50.798;7.302;2022-11-15T06:14:23;4.4;;;3.7;;
44126;SDS011;29786;50.798;7.302;2022-11-15T06:15:23;6.1;;;3.7;;
44126;SDS011;29786;50.798;7.302;2022-11-15T06:16:23;4.4;;;3.6;;
44126;SDS011;29786;50.798;7.302;2022-11-15T06:17:23;5.7;;;4;;
44126;SDS011;29786;50.798;7.302;2022-11-15T06:18:23;4;;;3.6;;